sensor_id;sensor_type;location;lat;lon;timestamp;P1;durP1;ratioP1;P2;durP2;ratioP2
35578;SDS011;21687;48.900;9.188;2022-09-09T00:10:05;5.07;;;2.10;;
35578;SDS011;21687;48.900;9.188;2022-09-09T00:16:19;3.97;;;2.20;;
35578;SDS011;21687;48.900;9.188;2022-09-09T00:19:27;3.03;;;1.97;;
35578;SDS011;21687;48.900;9.188;2022-09-09T00:22:35;2.83;;;1.80;;
35578;SDS011;21687;48.900;9.188;2022-09-09T00:25:29;2.80;;;1.93;;
35578;SDS011;21687;48.900;9.188;2022-09-09T00:28:35;7.27;;;2.17;;
35578;SDS011;21687;48.900;9.188;2022-09-09T00:31:31;3.03;;;2.07;;
35578;SDS011;21687;48.900;9.188;2022-09-09T00:34:19;2.13;;;1.80;;
35578;SDS011;21687;48.900;9.188;2022-09-09T00:37:09;4.53;;;1.83;;
35578;SDS011;21687;48.900;9.188;2022-09-09T00:39:57;3.40;;;1.87;;
35578;SDS011;21687;48.900;9.188;2022-09-09T00:42:47;3.23;;;1.67;;
35578;SDS011;21687;48.900;9.188;2022-09-09T00:48:47;4.07;;;2.07;;
35578;SDS011;21687;48.900;9.188;2022-09-09T00:51:59;3.03;;;1.60;;
35578;SDS011;21687;48.900;9.188;2022-09-09T00:58:15;2.90;;;1.53;;
35578;SDS011;21687;48.900;9.188;2022-09-09T01:01:03;4.13;;;2.00;;
35578;SDS011;21687;48.900;9.188;2022-09-09T01:03:54;2.83;;;1.60;;
35578;SDS011;21687;48.900;9.188;2022-09-09T01:06:45;2.87;;;1.70;;
35578;SDS011;21687;48.900;9.188;2022-09-09T01:12:41;2.70;;;1.63;;
35578;SDS011;21687;48.900;9.188;2022-09-09T01:15:29;4.23;;;1.70;;
35578;SDS011;21687;48.900;9.188;2022-09-09T01:18:17;2.80;;;1.50;;
35578;SDS011;21687;48.900;9.188;2022-09-09T01:27:08;1.77;;;1.67;;
35578;SDS011;21687;48.900;9.188;2022-09-09T01:29:55;2.67;;;1.60;;
35578;SDS011;21687;48.900;9.188;2022-09-09T01:32:49;1.90;;;1.70;;
35578;SDS011;21687;48.900;9.188;2022-09-09T01:38:39;4.30;;;2.00;;
35578;SDS011;21687;48.900;9.188;2022-09-09T01:41:26;2.20;;;1.40;;
35578;SDS011;21687;48.900;9.188;2022-09-09T01:44:13;3.50;;;1.50;;
35578;SDS011;21687;48.900;9.188;2022-09-09T01:47:00;3.83;;;1.67;;
35578;SDS011;21687;48.900;9.188;2022-09-09T01:49:47;2.60;;;1.50;;
35578;SDS011;21687;48.900;9.188;2022-09-09T01:52:33;2.30;;;1.40;;
35578;SDS011;21687;48.900;9.188;2022-09-09T01:55:41;2.07;;;1.40;;
35578;SDS011;21687;48.900;9.188;2022-09-09T02:04:57;1.97;;;1.30;;
35578;SDS011;21687;48.900;9.188;2022-09-09T02:07:55;3.07;;;1.57;;
35578;SDS011;21687;48.900;9.188;2022-09-09T02:14:01;1.47;;;1.37;;
35578;SDS011;21687;48.900;9.188;2022-09-09T02:16:58;2.27;;;1.60;;
35578;SDS011;21687;48.900;9.188;2022-09-09T02:20:03;2.80;;;1.33;;
35578;SDS011;21687;48.900;9.188;2022-09-09T02:22:53;1.53;;;1.37;;
35578;SDS011;21687;48.900;9.188;2022-09-09T02:25:41;2.77;;;1.70;;
35578;SDS011;21687;48.900;9.188;2022-09-09T02:28:29;1.70;;;1.60;;
35578;SDS011;21687;48.900;9.188;2022-09-09T02:31:20;1.90;;;1.30;;
35578;SDS011;21687;48.900;9.188;2022-09-09T02:34:09;1.87;;;1.43;;
35578;SDS011;21687;48.900;9.188;2022-09-09T02:36:57;2.10;;;1.00;;
35578;SDS011;21687;48.900;9.188;2022-09-09T02:39:46;3.53;;;1.43;;
35578;SDS011;21687;48.900;9.188;2022-09-09T02:42:38;3.40;;;1.47;;
35578;SDS011;21687;48.900;9.188;2022-09-09T02:45:27;2.83;;;1.67;;
35578;SDS011;21687;48.900;9.188;2022-09-09T02:48:55;2.40;;;1.50;;
35578;SDS011;21687;48.900;9.188;2022-09-09T02:54:56;1.33;;;1.17;;
35578;SDS011;21687;48.900;9.188;2022-09-09T02:57:49;3.83;;;1.50;;
35578;SDS011;21687;48.900;9.188;2022-09-09T03:00:36;3.80;;;1.30;;
35578;SDS011;21687;48.900;9.188;2022-09-09T03:03:24;2.17;;;1.30;;
35578;SDS011;21687;48.900;9.188;2022-09-09T03:06:11;3.17;;;1.27;;
35578;SDS011;21687;48.900;9.188;2022-09-09T03:08:58;1.40;;;1.30;;
35578;SDS011;21687;48.900;9.188;2022-09-09T03:11:46;1.57;;;1.47;;
35578;SDS011;21687;48.900;9.188;2022-09-09T03:14:34;1.90;;;1.50;;
35578;SDS011;21687;48.900;9.188;2022-09-09T03:17:21;2.63;;;1.40;;
35578;SDS011;21687;48.900;9.188;2022-09-09T03:20:07;1.67;;;1.50;;
35578;SDS011;21687;48.900;9.188;2022-09-09T03:22:55;1.53;;;1.23;;
35578;SDS011;21687;48.900;9.188;2022-09-09T03:25:51;3.57;;;1.57;;
35578;SDS011;21687;48.900;9.188;2022-09-09T03:28:42;2.60;;;1.47;;
35578;SDS011;21687;48.900;9.188;2022-09-09T03:31:29;2.90;;;1.77;;
35578;SDS011;21687;48.900;9.188;2022-09-09T03:34:16;2.17;;;1.97;;
35578;SDS011;21687;48.900;9.188;2022-09-09T03:37:02;2.13;;;1.93;;
35578;SDS011;21687;48.900;9.188;2022-09-09T03:39:49;3.70;;;1.73;;
35578;SDS011;21687;48.900;9.188;2022-09-09T03:42:36;2.90;;;2.50;;
35578;SDS011;21687;48.900;9.188;2022-09-09T03:45:23;1.87;;;1.67;;
35578;SDS011;21687;48.900;9.188;2022-09-09T03:48:09;4.37;;;1.60;;
35578;SDS011;21687;48.900;9.188;2022-09-09T03:50:57;2.47;;;1.30;;
35578;SDS011;21687;48.900;9.188;2022-09-09T03:53:45;4.50;;;1.90;;
35578;SDS011;21687;48.900;9.188;2022-09-09T03:56:32;1.53;;;1.43;;
35578;SDS011;21687;48.900;9.188;2022-09-09T03:59:19;2.70;;;1.57;;
35578;SDS011;21687;48.900;9.188;2022-09-09T04:02:06;4.03;;;1.60;;
35578;SDS011;21687;48.900;9.188;2022-09-09T04:04:53;2.20;;;1.60;;
35578;SDS011;21687;48.900;9.188;2022-09-09T04:07:39;1.40;;;1.30;;
35578;SDS011;21687;48.900;9.188;2022-09-09T04:10:26;2.00;;;1.40;;
35578;SDS011;21687;48.900;9.188;2022-09-09T04:13:14;2.30;;;1.50;;
35578;SDS011;21687;48.900;9.188;2022-09-09T04:16:03;1.57;;;1.40;;
35578;SDS011;21687;48.900;9.188;2022-09-09T04:18:49;3.63;;;1.70;;
35578;SDS011;21687;48.900;9.188;2022-09-09T04:21:36;4.07;;;1.73;;
35578;SDS011;21687;48.900;9.188;2022-09-09T04:24:22;2.33;;;1.50;;
35578;SDS011;21687;48.900;9.188;2022-09-09T04:27:09;1.87;;;1.57;;
35578;SDS011;21687;48.900;9.188;2022-09-09T04:29:56;4.00;;;1.70;;
35578;SDS011;21687;48.900;9.188;2022-09-09T04:32:42;2.23;;;1.50;;
35578;SDS011;21687;48.900;9.188;2022-09-09T04:35:29;3.83;;;1.83;;
35578;SDS011;21687;48.900;9.188;2022-09-09T04:38:16;2.77;;;1.90;;
35578;SDS011;21687;48.900;9.188;2022-09-09T04:41:04;2.17;;;1.83;;
35578;SDS011;21687;48.900;9.188;2022-09-09T04:43:51;1.80;;;1.33;;
35578;SDS011;21687;48.900;9.188;2022-09-09T04:46:38;3.20;;;1.50;;
35578;SDS011;21687;48.900;9.188;2022-09-09T04:49:26;1.60;;;1.50;;
35578;SDS011;21687;48.900;9.188;2022-09-09T04:52:12;1.80;;;1.53;;
35578;SDS011;21687;48.900;9.188;2022-09-09T04:55:02;3.37;;;1.80;;
35578;SDS011;21687;48.900;9.188;2022-09-09T04:57:49;2.57;;;1.40;;
35578;SDS011;21687;48.900;9.188;2022-09-09T05:00:36;1.67;;;1.33;;
35578;SDS011;21687;48.900;9.188;2022-09-09T05:03:22;2.63;;;1.50;;
35578;SDS011;21687;48.900;9.188;2022-09-09T05:06:10;2.27;;;1.53;;
35578;SDS011;21687;48.900;9.188;2022-09-09T05:08:58;2.07;;;1.63;;
35578;SDS011;21687;48.900;9.188;2022-09-09T05:11:45;2.40;;;1.30;;
35578;SDS011;21687;48.900;9.188;2022-09-09T05:14:31;4.87;;;2.60;;
35578;SDS011;21687;48.900;9.188;2022-09-09T05:17:18;3.30;;;1.70;;
35578;SDS011;21687;48.900;9.188;2022-09-09T05:20:05;2.17;;;1.80;;
35578;SDS011;21687;48.900;9.188;2022-09-09T05:22:53;8.63;;;2.17;;
35578;SDS011;21687;48.900;9.188;2022-09-09T05:25:39;4.53;;;2.20;;
35578;SDS011;21687;48.900;9.188;2022-09-09T05:28:27;3.43;;;1.93;;
35578;SDS011;21687;48.900;9.188;2022-09-09T05:31:15;5.63;;;2.07;;
35578;SDS011;21687;48.900;9.188;2022-09-09T05:34:02;3.47;;;1.73;;
35578;SDS011;21687;48.900;9.188;2022-09-09T05:36:49;2.87;;;1.53;;
35578;SDS011;21687;48.900;9.188;2022-09-09T05:39:37;1.97;;;1.60;;
35578;SDS011;21687;48.900;9.188;2022-09-09T05:42:24;2.40;;;1.70;;
35578;SDS011;21687;48.900;9.188;2022-09-09T05:45:14;2.37;;;1.70;;
35578;SDS011;21687;48.900;9.188;2022-09-09T05:48:00;2.03;;;1.60;;
35578;SDS011;21687;48.900;9.188;2022-09-09T05:50:52;3.20;;;1.70;;
35578;SDS011;21687;48.900;9.188;2022-09-09T05:53:39;3.43;;;1.97;;
35578;SDS011;21687;48.900;9.188;2022-09-09T05:56:29;2.60;;;1.77;;
35578;SDS011;21687;48.900;9.188;2022-09-09T05:59:15;4.47;;;1.83;;
35578;SDS011;21687;48.900;9.188;2022-09-09T06:02:02;2.47;;;1.47;;
35578;SDS011;21687;48.900;9.188;2022-09-09T06:04:48;2.97;;;1.60;;
35578;SDS011;21687;48.900;9.188;2022-09-09T06:07:34;1.73;;;1.40;;
35578;SDS011;21687;48.900;9.188;2022-09-09T06:10:21;2.40;;;1.70;;
35578;SDS011;21687;48.900;9.188;2022-09-09T06:13:08;3.33;;;1.67;;
35578;SDS011;21687;48.900;9.188;2022-09-09T06:15:55;1.90;;;1.43;;
35578;SDS011;21687;48.900;9.188;2022-09-09T06:18:42;1.97;;;1.37;;
35578;SDS011;21687;48.900;9.188;2022-09-09T06:21:29;3.80;;;1.70;;
35578;SDS011;21687;48.900;9.188;2022-09-09T06:24:18;2.40;;;1.47;;
35578;SDS011;21687;48.900;9.188;2022-09-09T06:27:05;1.63;;;1.50;;
35578;SDS011;21687;48.900;9.188;2022-09-09T06:29:51;1.73;;;1.50;;
35578;SDS011;21687;48.900;9.188;2022-09-09T06:32:38;2.17;;;1.27;;
35578;SDS011;21687;48.900;9.188;2022-09-09T06:35:24;3.23;;;1.87;;
35578;SDS011;21687;48.900;9.188;2022-09-09T06:38:11;2.93;;;1.80;;
35578;SDS011;21687;48.900;9.188;2022-09-09T06:40:58;4.07;;;1.50;;
35578;SDS011;21687;48.900;9.188;2022-09-09T06:43:46;5.70;;;1.63;;
35578;SDS011;21687;48.900;9.188;2022-09-09T06:46:33;3.07;;;1.50;;
35578;SDS011;21687;48.900;9.188;2022-09-09T06:49:20;2.77;;;1.50;;
35578;SDS011;21687;48.900;9.188;2022-09-09T06:52:07;6.53;;;1.80;;
35578;SDS011;21687;48.900;9.188;2022-09-09T06:54:54;2.30;;;1.57;;
35578;SDS011;21687;48.900;9.188;2022-09-09T06:57:40;4.33;;;1.57;;
35578;SDS011;21687;48.900;9.188;2022-09-09T07:00:27;3.00;;;1.60;;
35578;SDS011;21687;48.900;9.188;2022-09-09T07:03:15;3.80;;;1.53;;
35578;SDS011;21687;48.900;9.188;2022-09-09T07:06:02;5.87;;;1.70;;
35578;SDS011;21687;48.900;9.188;2022-09-09T07:08:49;2.33;;;1.30;;
35578;SDS011;21687;48.900;9.188;2022-09-09T07:11:38;3.80;;;1.63;;
35578;SDS011;21687;48.900;9.188;2022-09-09T07:14:32;4.40;;;1.57;;
35578;SDS011;21687;48.900;9.188;2022-09-09T07:17:21;3.10;;;1.70;;
35578;SDS011;21687;48.900;9.188;2022-09-09T07:20:07;1.53;;;1.30;;
35578;SDS011;21687;48.900;9.188;2022-09-09T07:22:54;2.67;;;1.20;;
35578;SDS011;21687;48.900;9.188;2022-09-09T07:25:44;2.03;;;1.30;;
35578;SDS011;21687;48.900;9.188;2022-09-09T07:28:31;2.97;;;1.27;;
35578;SDS011;21687;48.900;9.188;2022-09-09T07:31:18;1.90;;;1.23;;
35578;SDS011;21687;48.900;9.188;2022-09-09T07:34:07;1.57;;;1.10;;
35578;SDS011;21687;48.900;9.188;2022-09-09T07:36:53;7.63;;;2.17;;
35578;SDS011;21687;48.900;9.188;2022-09-09T07:39:41;3.33;;;1.20;;
35578;SDS011;21687;48.900;9.188;2022-09-09T07:42:29;1.60;;;1.20;;
35578;SDS011;21687;48.900;9.188;2022-09-09T07:45:15;1.73;;;1.07;;
35578;SDS011;21687;48.900;9.188;2022-09-09T07:48:02;1.47;;;1.20;;
35578;SDS011;21687;48.900;9.188;2022-09-09T07:50:49;2.40;;;1.30;;
35578;SDS011;21687;48.900;9.188;2022-09-09T07:53:36;1.50;;;1.10;;
35578;SDS011;21687;48.900;9.188;2022-09-09T07:56:26;2.53;;;1.27;;
35578;SDS011;21687;48.900;9.188;2022-09-09T07:59:13;1.33;;;1.00;;
35578;SDS011;21687;48.900;9.188;2022-09-09T08:02:00;2.77;;;1.20;;
35578;SDS011;21687;48.900;9.188;2022-09-09T08:04:47;1.37;;;1.17;;
35578;SDS011;21687;48.900;9.188;2022-09-09T08:07:33;3.70;;;1.60;;
35578;SDS011;21687;48.900;9.188;2022-09-09T08:10:20;2.00;;;1.17;;
35578;SDS011;21687;48.900;9.188;2022-09-09T08:13:06;2.03;;;1.07;;
35578;SDS011;21687;48.900;9.188;2022-09-09T08:15:54;4.07;;;1.30;;
35578;SDS011;21687;48.900;9.188;2022-09-09T08:18:40;1.80;;;0.83;;
35578;SDS011;21687;48.900;9.188;2022-09-09T08:21:28;3.40;;;1.17;;
35578;SDS011;21687;48.900;9.188;2022-09-09T08:24:15;1.23;;;1.00;;
35578;SDS011;21687;48.900;9.188;2022-09-09T08:27:02;3.20;;;1.27;;
35578;SDS011;21687;48.900;9.188;2022-09-09T08:29:48;2.07;;;1.20;;
35578;SDS011;21687;48.900;9.188;2022-09-09T08:32:35;3.73;;;1.77;;
35578;SDS011;21687;48.900;9.188;2022-09-09T08:35:21;4.93;;;1.63;;
35578;SDS011;21687;48.900;9.188;2022-09-09T08:38:08;2.13;;;1.13;;
35578;SDS011;21687;48.900;9.188;2022-09-09T08:40:55;4.40;;;1.10;;
35578;SDS011;21687;48.900;9.188;2022-09-09T08:43:48;0.93;;;0.83;;
35578;SDS011;21687;48.900;9.188;2022-09-09T08:55:46;4.13;;;1.90;;
35578;SDS011;21687;48.900;9.188;2022-09-09T09:08:26;2.20;;;1.00;;
35578;SDS011;21687;48.900;9.188;2022-09-09T09:11:25;1.67;;;1.03;;
35578;SDS011;21687;48.900;9.188;2022-09-09T09:14:17;1.97;;;1.30;;
35578;SDS011;21687;48.900;9.188;2022-09-09T09:17:12;3.73;;;1.30;;
35578;SDS011;21687;48.900;9.188;2022-09-09T09:20:02;1.80;;;0.90;;
35578;SDS011;21687;48.900;9.188;2022-09-09T09:22:52;2.90;;;1.07;;
35578;SDS011;21687;48.900;9.188;2022-09-09T09:25:41;1.07;;;0.90;;
35578;SDS011;21687;48.900;9.188;2022-09-09T09:28:30;1.47;;;0.90;;
35578;SDS011;21687;48.900;9.188;2022-09-09T09:31:18;2.20;;;0.97;;
35578;SDS011;21687;48.900;9.188;2022-09-09T09:34:07;2.00;;;1.50;;
35578;SDS011;21687;48.900;9.188;2022-09-09T09:36:57;2.60;;;1.10;;
35578;SDS011;21687;48.900;9.188;2022-09-09T09:39:47;1.07;;;0.90;;
35578;SDS011;21687;48.900;9.188;2022-09-09T09:42:34;2.20;;;1.10;;
35578;SDS011;21687;48.900;9.188;2022-09-09T09:45:42;1.63;;;1.00;;
35578;SDS011;21687;48.900;9.188;2022-09-09T09:48:29;2.27;;;0.97;;
35578;SDS011;21687;48.900;9.188;2022-09-09T09:51:17;3.13;;;1.07;;
35578;SDS011;21687;48.900;9.188;2022-09-09T09:57:12;1.70;;;0.80;;
35578;SDS011;21687;48.900;9.188;2022-09-09T10:00:16;0.90;;;0.90;;
35578;SDS011;21687;48.900;9.188;2022-09-09T10:06:35;1.23;;;0.90;;
35578;SDS011;21687;48.900;9.188;2022-09-09T10:09:27;2.03;;;1.10;;
35578;SDS011;21687;48.900;9.188;2022-09-09T10:33:41;1.73;;;0.90;;
35578;SDS011;21687;48.900;9.188;2022-09-09T10:36:32;0.87;;;0.77;;
35578;SDS011;21687;48.900;9.188;2022-09-09T10:39:38;6.80;;;1.10;;
35578;SDS011;21687;48.900;9.188;2022-09-09T10:42:26;1.87;;;1.03;;
35578;SDS011;21687;48.900;9.188;2022-09-09T10:45:21;2.73;;;0.90;;
35578;SDS011;21687;48.900;9.188;2022-09-09T10:48:26;2.13;;;0.77;;
35578;SDS011;21687;48.900;9.188;2022-09-09T10:51:23;1.13;;;0.70;;
35578;SDS011;21687;48.900;9.188;2022-09-09T10:54:32;1.33;;;0.90;;
35578;SDS011;21687;48.900;9.188;2022-09-09T10:57:29;2.30;;;0.80;;
35578;SDS011;21687;48.900;9.188;2022-09-09T11:00:23;2.40;;;0.90;;
35578;SDS011;21687;48.900;9.188;2022-09-09T11:03:20;1.87;;;0.90;;
35578;SDS011;21687;48.900;9.188;2022-09-09T11:06:19;1.57;;;1.07;;
35578;SDS011;21687;48.900;9.188;2022-09-09T11:09:13;1.37;;;1.20;;
35578;SDS011;21687;48.900;9.188;2022-09-09T11:12:03;1.97;;;1.00;;
35578;SDS011;21687;48.900;9.188;2022-09-09T11:17:50;1.37;;;1.10;;
35578;SDS011;21687;48.900;9.188;2022-09-09T11:20:42;1.37;;;1.00;;
35578;SDS011;21687;48.900;9.188;2022-09-09T11:23:37;3.33;;;1.17;;
35578;SDS011;21687;48.900;9.188;2022-09-09T11:26:30;0.80;;;0.63;;
35578;SDS011;21687;48.900;9.188;2022-09-09T11:29:29;1.60;;;0.97;;
35578;SDS011;21687;48.900;9.188;2022-09-09T11:38:51;0.87;;;0.87;;
35578;SDS011;21687;48.900;9.188;2022-09-09T11:41:42;4.03;;;1.40;;
35578;SDS011;21687;48.900;9.188;2022-09-09T11:44:29;1.20;;;1.10;;
35578;SDS011;21687;48.900;9.188;2022-09-09T11:53:20;1.93;;;1.00;;
35578;SDS011;21687;48.900;9.188;2022-09-09T11:56:22;0.70;;;0.70;;
35578;SDS011;21687;48.900;9.188;2022-09-09T11:59:31;0.70;;;0.70;;
35578;SDS011;21687;48.900;9.188;2022-09-09T12:02:21;0.93;;;0.63;;
35578;SDS011;21687;48.900;9.188;2022-09-09T12:05:11;1.73;;;0.90;;
35578;SDS011;21687;48.900;9.188;2022-09-09T12:08:00;2.23;;;0.60;;
35578;SDS011;21687;48.900;9.188;2022-09-09T12:10:55;1.37;;;0.83;;
35578;SDS011;21687;48.900;9.188;2022-09-09T12:13:51;0.77;;;0.77;;
35578;SDS011;21687;48.900;9.188;2022-09-09T12:16:39;0.60;;;0.60;;
35578;SDS011;21687;48.900;9.188;2022-09-09T12:19:26;1.93;;;0.67;;
35578;SDS011;21687;48.900;9.188;2022-09-09T12:37:34;1.30;;;0.90;;
35578;SDS011;21687;48.900;9.188;2022-09-09T12:40:24;1.57;;;0.70;;
35578;SDS011;21687;48.900;9.188;2022-09-09T12:43:17;1.50;;;0.80;;
35578;SDS011;21687;48.900;9.188;2022-09-09T12:46:07;0.73;;;0.60;;
35578;SDS011;21687;48.900;9.188;2022-09-09T12:49:00;1.17;;;0.50;;
35578;SDS011;21687;48.900;9.188;2022-09-09T12:51:46;1.57;;;0.90;;
35578;SDS011;21687;48.900;9.188;2022-09-09T12:54:34;3.37;;;1.17;;
35578;SDS011;21687;48.900;9.188;2022-09-09T12:57:22;0.80;;;0.80;;
35578;SDS011;21687;48.900;9.188;2022-09-09T13:00:22;1.23;;;0.73;;
35578;SDS011;21687;48.900;9.188;2022-09-09T13:03:16;1.33;;;0.93;;
35578;SDS011;21687;48.900;9.188;2022-09-09T13:06:12;1.93;;;0.97;;
35578;SDS011;21687;48.900;9.188;2022-09-09T13:09:05;2.40;;;0.90;;
35578;SDS011;21687;48.900;9.188;2022-09-09T13:11:54;2.10;;;0.60;;
35578;SDS011;21687;48.900;9.188;2022-09-09T13:14:44;1.13;;;0.60;;
35578;SDS011;21687;48.900;9.188;2022-09-09T13:17:33;1.60;;;0.50;;
35578;SDS011;21687;48.900;9.188;2022-09-09T13:20:21;1.27;;;0.70;;
35578;SDS011;21687;48.900;9.188;2022-09-09T13:23:10;0.60;;;0.60;;
35578;SDS011;21687;48.900;9.188;2022-09-09T13:25:59;1.90;;;0.70;;
35578;SDS011;21687;48.900;9.188;2022-09-09T13:28:47;0.70;;;0.70;;
35578;SDS011;21687;48.900;9.188;2022-09-09T13:31:36;0.80;;;0.80;;
35578;SDS011;21687;48.900;9.188;2022-09-09T13:34:27;1.90;;;0.60;;
35578;SDS011;21687;48.900;9.188;2022-09-09T13:37:22;2.43;;;0.70;;
35578;SDS011;21687;48.900;9.188;2022-09-09T13:40:23;0.63;;;0.53;;
35578;SDS011;21687;48.900;9.188;2022-09-09T13:43:14;0.67;;;0.60;;
35578;SDS011;21687;48.900;9.188;2022-09-09T13:49:21;1.07;;;0.70;;
35578;SDS011;21687;48.900;9.188;2022-09-09T13:54:58;1.27;;;0.70;;
35578;SDS011;21687;48.900;9.188;2022-09-09T13:57:52;1.87;;;0.70;;
35578;SDS011;21687;48.900;9.188;2022-09-09T14:00:51;1.43;;;1.13;;
35578;SDS011;21687;48.900;9.188;2022-09-09T14:03:38;0.80;;;0.70;;
35578;SDS011;21687;48.900;9.188;2022-09-09T14:06:25;1.30;;;0.70;;
35578;SDS011;21687;48.900;9.188;2022-09-09T14:09:13;1.03;;;0.80;;
35578;SDS011;21687;48.900;9.188;2022-09-09T14:12:01;0.63;;;0.63;;
35578;SDS011;21687;48.900;9.188;2022-09-09T14:14:47;0.77;;;0.67;;
35578;SDS011;21687;48.900;9.188;2022-09-09T14:17:35;1.03;;;0.43;;
35578;SDS011;21687;48.900;9.188;2022-09-09T14:20:21;0.73;;;0.67;;
35578;SDS011;21687;48.900;9.188;2022-09-09T14:23:09;1.17;;;1.07;;
35578;SDS011;21687;48.900;9.188;2022-09-09T14:25:58;1.33;;;0.70;;
35578;SDS011;21687;48.900;9.188;2022-09-09T14:28:44;0.83;;;0.70;;
35578;SDS011;21687;48.900;9.188;2022-09-09T14:31:31;1.77;;;0.70;;
35578;SDS011;21687;48.900;9.188;2022-09-09T14:34:18;2.30;;;0.80;;
35578;SDS011;21687;48.900;9.188;2022-09-09T14:37:04;1.00;;;0.60;;
35578;SDS011;21687;48.900;9.188;2022-09-09T14:39:51;0.90;;;0.90;;
35578;SDS011;21687;48.900;9.188;2022-09-09T14:42:39;3.27;;;1.20;;
35578;SDS011;21687;48.900;9.188;2022-09-09T14:45:26;1.50;;;0.60;;
35578;SDS011;21687;48.900;9.188;2022-09-09T14:48:14;1.60;;;1.07;;
35578;SDS011;21687;48.900;9.188;2022-09-09T14:51:05;1.33;;;0.60;;
35578;SDS011;21687;48.900;9.188;2022-09-09T14:53:53;0.70;;;0.70;;
35578;SDS011;21687;48.900;9.188;2022-09-09T14:56:41;0.90;;;0.70;;
35578;SDS011;21687;48.900;9.188;2022-09-09T14:59:28;1.63;;;0.53;;
35578;SDS011;21687;48.900;9.188;2022-09-09T15:02:15;0.83;;;0.60;;
35578;SDS011;21687;48.900;9.188;2022-09-09T15:05:02;1.93;;;0.60;;
35578;SDS011;21687;48.900;9.188;2022-09-09T15:07:49;1.67;;;0.60;;
35578;SDS011;21687;48.900;9.188;2022-09-09T15:10:36;1.47;;;0.70;;
35578;SDS011;21687;48.900;9.188;2022-09-09T15:13:24;0.43;;;0.43;;
35578;SDS011;21687;48.900;9.188;2022-09-09T15:16:15;1.23;;;0.70;;
35578;SDS011;21687;48.900;9.188;2022-09-09T15:19:02;1.60;;;0.77;;
35578;SDS011;21687;48.900;9.188;2022-09-09T15:21:49;1.53;;;0.60;;
35578;SDS011;21687;48.900;9.188;2022-09-09T15:24:35;10.87;;;1.30;;
35578;SDS011;21687;48.900;9.188;2022-09-09T15:27:22;1.63;;;0.80;;
35578;SDS011;21687;48.900;9.188;2022-09-09T15:30:09;1.07;;;0.73;;
35578;SDS011;21687;48.900;9.188;2022-09-09T15:32:56;1.30;;;0.60;;
35578;SDS011;21687;48.900;9.188;2022-09-09T15:35:42;0.67;;;0.67;;
35578;SDS011;21687;48.900;9.188;2022-09-09T15:38:30;0.60;;;0.60;;
35578;SDS011;21687;48.900;9.188;2022-09-09T15:41:17;0.67;;;0.50;;
35578;SDS011;21687;48.900;9.188;2022-09-09T15:44:05;1.70;;;0.80;;
35578;SDS011;21687;48.900;9.188;2022-09-09T15:46:52;0.63;;;0.63;;
35578;SDS011;21687;48.900;9.188;2022-09-09T15:49:39;0.60;;;0.60;;
35578;SDS011;21687;48.900;9.188;2022-09-09T15:52:25;1.10;;;0.60;;
35578;SDS011;21687;48.900;9.188;2022-09-09T15:55:12;0.73;;;0.73;;
35578;SDS011;21687;48.900;9.188;2022-09-09T15:57:58;0.70;;;0.70;;
35578;SDS011;21687;48.900;9.188;2022-09-09T16:00:46;0.83;;;0.57;;
35578;SDS011;21687;48.900;9.188;2022-09-09T16:03:40;1.23;;;0.67;;
35578;SDS011;21687;48.900;9.188;2022-09-09T16:06:28;0.90;;;0.80;;
35578;SDS011;21687;48.900;9.188;2022-09-09T16:09:15;1.10;;;0.70;;
35578;SDS011;21687;48.900;9.188;2022-09-09T16:12:02;1.87;;;0.63;;
35578;SDS011;21687;48.900;9.188;2022-09-09T16:14:53;1.27;;;0.50;;
35578;SDS011;21687;48.900;9.188;2022-09-09T16:17:40;2.37;;;0.93;;
35578;SDS011;21687;48.900;9.188;2022-09-09T16:20:26;2.67;;;0.70;;
35578;SDS011;21687;48.900;9.188;2022-09-09T16:23:13;1.03;;;0.90;;
35578;SDS011;21687;48.900;9.188;2022-09-09T16:26:00;1.60;;;0.40;;
35578;SDS011;21687;48.900;9.188;2022-09-09T16:28:46;0.40;;;0.40;;
35578;SDS011;21687;48.900;9.188;2022-09-09T16:31:33;0.40;;;0.40;;
35578;SDS011;21687;48.900;9.188;2022-09-09T16:34:20;0.60;;;0.60;;
35578;SDS011;21687;48.900;9.188;2022-09-09T16:37:07;0.43;;;0.43;;
35578;SDS011;21687;48.900;9.188;2022-09-09T16:39:53;1.00;;;0.50;;
35578;SDS011;21687;48.900;9.188;2022-09-09T16:42:40;1.17;;;0.50;;
35578;SDS011;21687;48.900;9.188;2022-09-09T16:45:27;1.00;;;0.83;;
35578;SDS011;21687;48.900;9.188;2022-09-09T16:48:14;1.87;;;0.60;;
35578;SDS011;21687;48.900;9.188;2022-09-09T16:51:02;1.30;;;0.80;;
35578;SDS011;21687;48.900;9.188;2022-09-09T16:53:53;0.80;;;0.80;;
35578;SDS011;21687;48.900;9.188;2022-09-09T16:56:43;0.90;;;0.70;;
35578;SDS011;21687;48.900;9.188;2022-09-09T16:59:31;4.63;;;0.70;;
35578;SDS011;21687;48.900;9.188;2022-09-09T17:02:20;1.33;;;1.00;;
35578;SDS011;21687;48.900;9.188;2022-09-09T17:05:07;1.50;;;0.60;;
35578;SDS011;21687;48.900;9.188;2022-09-09T17:07:55;0.83;;;0.83;;
35578;SDS011;21687;48.900;9.188;2022-09-09T17:10:42;2.00;;;0.90;;
35578;SDS011;21687;48.900;9.188;2022-09-09T17:13:29;0.90;;;0.90;;
35578;SDS011;21687;48.900;9.188;2022-09-09T17:16:17;3.40;;;1.17;;
35578;SDS011;21687;48.900;9.188;2022-09-09T17:19:08;0.97;;;0.97;;
35578;SDS011;21687;48.900;9.188;2022-09-09T17:21:55;0.93;;;0.77;;
35578;SDS011;21687;48.900;9.188;2022-09-09T17:24:44;2.80;;;1.00;;
35578;SDS011;21687;48.900;9.188;2022-09-09T17:27:31;3.10;;;1.10;;
35578;SDS011;21687;48.900;9.188;2022-09-09T17:30:18;1.50;;;1.40;;
35578;SDS011;21687;48.900;9.188;2022-09-09T17:33:04;1.00;;;0.90;;
35578;SDS011;21687;48.900;9.188;2022-09-09T17:35:52;1.27;;;1.17;;
35578;SDS011;21687;48.900;9.188;2022-09-09T17:38:39;3.23;;;1.10;;
35578;SDS011;21687;48.900;9.188;2022-09-09T17:41:35;1.80;;;1.10;;
35578;SDS011;21687;48.900;9.188;2022-09-09T17:44:23;1.77;;;1.10;;
35578;SDS011;21687;48.900;9.188;2022-09-09T17:47:09;1.13;;;0.80;;
35578;SDS011;21687;48.900;9.188;2022-09-09T17:49:56;1.83;;;1.20;;
35578;SDS011;21687;48.900;9.188;2022-09-09T17:52:42;1.23;;;0.90;;
35578;SDS011;21687;48.900;9.188;2022-09-09T17:55:29;0.97;;;0.90;;
35578;SDS011;21687;48.900;9.188;2022-09-09T17:58:17;1.83;;;0.90;;
35578;SDS011;21687;48.900;9.188;2022-09-09T18:01:05;0.93;;;0.93;;
35578;SDS011;21687;48.900;9.188;2022-09-09T18:03:58;1.37;;;1.10;;
35578;SDS011;21687;48.900;9.188;2022-09-09T18:06:47;1.03;;;0.93;;
35578;SDS011;21687;48.900;9.188;2022-09-09T18:09:35;3.50;;;1.37;;
35578;SDS011;21687;48.900;9.188;2022-09-09T18:12:23;1.70;;;1.40;;
35578;SDS011;21687;48.900;9.188;2022-09-09T18:15:09;1.40;;;1.20;;
35578;SDS011;21687;48.900;9.188;2022-09-09T18:17:57;1.43;;;1.30;;
35578;SDS011;21687;48.900;9.188;2022-09-09T18:20:56;2.80;;;1.30;;
35578;SDS011;21687;48.900;9.188;2022-09-09T18:23:44;1.33;;;0.97;;
35578;SDS011;21687;48.900;9.188;2022-09-09T18:26:34;3.40;;;1.30;;
35578;SDS011;21687;48.900;9.188;2022-09-09T18:29:22;0.83;;;0.83;;
35578;SDS011;21687;48.900;9.188;2022-09-09T18:32:09;1.60;;;0.90;;
35578;SDS011;21687;48.900;9.188;2022-09-09T18:34:56;1.80;;;1.20;;
35578;SDS011;21687;48.900;9.188;2022-09-09T18:37:45;1.43;;;1.00;;
35578;SDS011;21687;48.900;9.188;2022-09-09T18:40:32;3.07;;;1.40;;
35578;SDS011;21687;48.900;9.188;2022-09-09T18:43:18;1.20;;;1.10;;
35578;SDS011;21687;48.900;9.188;2022-09-09T18:46:05;1.90;;;1.10;;
35578;SDS011;21687;48.900;9.188;2022-09-09T18:48:52;0.97;;;0.97;;
35578;SDS011;21687;48.900;9.188;2022-09-09T18:51:41;2.07;;;1.63;;
35578;SDS011;21687;48.900;9.188;2022-09-09T18:54:29;1.33;;;1.23;;
35578;SDS011;21687;48.900;9.188;2022-09-09T18:57:17;1.17;;;1.13;;
35578;SDS011;21687;48.900;9.188;2022-09-09T19:00:04;2.77;;;1.80;;
35578;SDS011;21687;48.900;9.188;2022-09-09T19:02:53;2.63;;;1.67;;
35578;SDS011;21687;48.900;9.188;2022-09-09T19:05:40;1.67;;;1.53;;
35578;SDS011;21687;48.900;9.188;2022-09-09T19:08:26;3.10;;;2.13;;